Brisas del Valle, Puerto Rico
Current Conditions -  °F | °C
As of 4:50 AM on Saturday 01 Nov 2014 (Local Time) from TJBQ Reporting Station
Clear Clear  
Wind Chill: 72°   Ceiling: Unl
Heat Index: 72°   Visibility: 10mi
Dew Point: 70°   Wind: 3mph
Humidity: 94%   Direction: 150°SSE
Pressure: 29.92"   Gusts: NA
Location:  18.4287°N, 66.6836°W
Report Text: TJBQ 010850Z 15003KT 10SM SKC 22/21 A2992 RMK RWY08 -ATIS H
Loading
Personal Weather Stations






























Interactive Weather Map
Tropical Storm Tracking
New forecast layout! Learn more

10-Day Weather Forecast

Advertisements
Track Severe Weather on mobile